Aeroporto :
LOGIN :

Iscrizione | Disclaimer

   EN    FR    IT 

 










Sommario :    VFR   VFR Marginale   IFR   IFR Intensivo   IFR Molto Intensivo
Visibilità : 
Base nubi : 
>= 8 km
>= 3000ft
5 / 8 km
1000 / 3000 ft
1500m / 5 km
500 / 1000 ft
800 / 1500m
200 / 500 ft
< 800m
< 200 ft
Simboli :   Temporali  Nebbia  Neve Forte  Precipitazioni Forti  Vento > 20 kt
SIGMETs :   Varie  Temporali  Ghiacco  Turbolenza  Onda orograficha  Ceneri Vulcaniche






- Altitudine del aeroporto : 1300 ft
- Codice IATA : LIG


LFBL - Limoges

ULTIMO METAR :
  • 191630Z AUTO 26009KT 230V290 9999 FEW029/// BKN096/// ///CB 23/15 Q1020 TEMPO 4000 SHRA

METARs OBSOLETI :
  • 191600Z AUTO 27009KT 240V300 9999 SCT034/// SCT047/// BKN072/// ///CB 23/16 Q1021 TEMPO 2500 TSRA
  • 191530Z AUTO 28006KT 230V310 9999 FEW035/// SCT044/// BKN100/// ///TCU 24/16 Q1020 TEMPO 2500 TSRA BKN020CB
  • 191500Z AUTO VRB06G16KT 9999 FEW030/// SCT052/// ///TCU 25/16 Q1021 TEMPO 2500 TSRA BKN020CB
  • 191430Z AUTO 28005KT 240V320 9999 FEW031/// SCT052/// BKN096/// //////TCU 23/16 Q1021 TEMPO 2500 TSRA BKN020CB
  • 191400Z AUTO 27009KT 230V310 9999 BKN029/// BKN037/// OVC060/// ///TCU 23/16 Q1021 TEMPO 2500 TSRA BKN020CB

TAF TAF LFBL
Valido dal 19 a 12 ore il 20 a 12 ore UTC


191100Z 1912/2012 29007KT 9999 BKN020 BKN040
TEMPO 1912/1921 29010G20KT 4000 SHRA BKN020 BKN035TCU
PROB30
TEMPO 1915/1918 2500 TSRA BKN020CB
BECMG 1921/1923 CAVOK
BECMG 2001/2003 VRB02KT 3000 BR BKN002
PROB40 2003/2006 0500 FG VV///
BECMG 2007/2009 32007KT BKN030
ATIS : +33 5 55 48 40 37



MetMap, La meteo Aeronautica in un colpo d'occhio ! - Copyright ORBIFLY Dicembre 2007 - Disclaimer

ORBIFLY MET'MAP TEAM :

Programmazione e sviluppo : Alexandra Zaïnal
Concezione : Baudouin d'Aumeries
Supporto tecnico e logistico : Manuel Goepfert
Aiuto : Marc-Olivier Méhu
Aiuto per la traduzione : Arnaldo La Scala




FONTI E CREDITI :

   NOAA